createdAt,value
2022-09-11T00:01:22.389Z,0.68
2022-09-11T00:04:10.146Z,0.70
2022-09-11T00:06:56.030Z,0.60
2022-09-11T00:09:42.449Z,0.50
2022-09-11T00:12:28.253Z,0.57
2022-09-11T00:15:14.588Z,0.60
2022-09-11T00:18:00.498Z,0.57
2022-09-11T00:20:52.132Z,0.60
2022-09-11T00:26:25.257Z,0.37
2022-09-11T00:29:11.887Z,0.50
2022-09-11T00:31:58.414Z,0.50
2022-09-11T00:34:46.920Z,0.50
2022-09-11T00:37:33.169Z,0.77
2022-09-11T00:40:19.687Z,0.60
2022-09-11T00:43:10.057Z,0.60
2022-09-11T00:46:03.283Z,0.47
2022-09-11T00:48:50.112Z,0.65
2022-09-11T00:51:37.851Z,0.40
2022-09-11T00:54:31.078Z,0.50
2022-09-11T00:57:18.477Z,0.40
2022-09-11T01:00:05.565Z,0.50
2022-09-11T01:02:53.567Z,0.50
2022-09-11T01:05:41.389Z,0.40
2022-09-11T01:08:27.770Z,0.50
2022-09-11T01:11:26.015Z,0.40
2022-09-11T01:14:42.249Z,0.50
2022-09-11T01:17:54.106Z,0.60
2022-09-11T01:20:52.954Z,0.40
2022-09-11T01:24:04.457Z,0.45
2022-09-11T01:26:53.533Z,0.40
2022-09-11T01:29:44.870Z,0.50
2022-09-11T01:32:37.219Z,0.60
2022-09-11T01:35:29.147Z,0.40
2022-09-11T01:38:53.541Z,0.50
2022-09-11T01:42:01.491Z,0.65
2022-09-11T01:44:51.923Z,0.40
2022-09-11T01:47:38.874Z,0.30
2022-09-11T01:50:25.427Z,0.60
2022-09-11T01:53:13.033Z,0.50
2022-09-11T01:56:04.967Z,0.57
2022-09-11T01:58:57.024Z,0.40
2022-09-11T02:01:50.189Z,1.37
2022-09-11T02:04:41.050Z,0.68
2022-09-11T02:07:35.291Z,0.50
2022-09-11T02:10:54.361Z,0.60
2022-09-11T02:13:52.882Z,0.60
2022-09-11T02:16:50.161Z,0.65
2022-09-11T02:19:36.620Z,0.60
2022-09-11T02:22:23.327Z,0.50
2022-09-11T02:25:09.554Z,0.40
2022-09-11T02:27:58.973Z,0.47
2022-09-11T02:30:45.538Z,0.57
2022-09-11T02:33:37.030Z,0.50
2022-09-11T02:36:32.304Z,0.52
2022-09-11T02:39:39.512Z,0.50
2022-09-11T02:42:31.578Z,0.40
2022-09-11T02:45:32.601Z,0.50
2022-09-11T02:48:44.172Z,0.37
2022-09-11T02:51:37.107Z,0.50
2022-09-11T02:54:30.406Z,0.30
2022-09-11T02:57:33.248Z,0.40
2022-09-11T03:00:19.799Z,0.40
2022-09-11T03:03:06.247Z,0.50
2022-09-11T03:05:53.170Z,0.60
2022-09-11T03:08:41.054Z,0.60
2022-09-11T03:11:27.782Z,0.45
2022-09-11T03:14:15.139Z,0.70
2022-09-11T03:17:02.134Z,0.50
2022-09-11T03:19:49.540Z,0.70
2022-09-11T03:22:36.573Z,0.60
2022-09-11T03:25:28.251Z,0.50
2022-09-11T03:28:14.752Z,0.50
2022-09-11T03:31:01.269Z,0.57
2022-09-11T03:33:48.067Z,0.60
2022-09-11T03:36:35.051Z,0.70
2022-09-11T03:39:21.568Z,0.60
2022-09-11T03:42:12.247Z,0.50
2022-09-11T03:44:58.532Z,0.47
2022-09-11T03:47:44.843Z,0.80
2022-09-11T03:50:31.263Z,0.50
2022-09-11T03:53:17.538Z,0.60
2022-09-11T03:56:05.041Z,0.40
2022-09-11T03:58:57.994Z,0.50
2022-09-11T04:01:45.111Z,0.50
2022-09-11T04:04:32.933Z,0.60
2022-09-11T04:07:19.469Z,0.60
2022-09-11T04:10:06.815Z,0.60
2022-09-11T04:12:53.295Z,0.95
2022-09-11T04:15:40.516Z,0.70
2022-09-11T04:18:26.601Z,0.73
2022-09-11T04:21:16.056Z,0.60
2022-09-11T04:24:02.688Z,0.60
2022-09-11T04:26:49.050Z,0.80
2022-09-11T04:29:35.441Z,0.70
2022-09-11T04:32:22.275Z,0.68
2022-09-11T04:35:09.053Z,0.60
2022-09-11T04:37:55.673Z,0.68
2022-09-11T04:40:42.090Z,0.60
2022-09-11T04:43:32.996Z,0.60
2022-09-11T04:46:19.722Z,0.60
2022-09-11T04:49:06.125Z,0.75
2022-09-11T04:51:52.999Z,0.73
2022-09-11T04:54:39.870Z,0.70
2022-09-11T04:57:26.757Z,0.62
2022-09-11T05:00:13.652Z,0.60
2022-09-11T05:03:01.941Z,0.98
2022-09-11T05:05:48.562Z,0.90
2022-09-11T05:08:34.886Z,0.65
2022-09-11T05:11:21.778Z,0.73
2022-09-11T05:14:08.982Z,0.60
2022-09-11T05:16:55.437Z,0.80
2022-09-11T05:19:43.290Z,0.98
2022-09-11T05:22:29.919Z,0.80
2022-09-11T05:25:18.585Z,0.82
2022-09-11T05:28:05.954Z,0.90
2022-09-11T05:30:55.926Z,0.88
2022-09-11T05:33:44.369Z,0.90
2022-09-11T05:36:31.218Z,0.70
2022-09-11T05:39:17.809Z,0.80
2022-09-11T05:42:04.592Z,0.70
2022-09-11T05:44:52.266Z,0.70
2022-09-11T05:47:39.276Z,0.60
2022-09-11T05:50:25.875Z,0.90
2022-09-11T05:53:12.652Z,0.90
2022-09-11T05:56:09.582Z,0.80
2022-09-11T05:58:58.032Z,0.70
2022-09-11T06:01:47.556Z,0.80
2022-09-11T06:04:34.259Z,0.70
2022-09-11T06:07:20.596Z,0.68
2022-09-11T06:10:08.245Z,0.68
2022-09-11T06:12:54.268Z,0.47
2022-09-11T06:15:46.836Z,0.60
2022-09-11T06:18:33.206Z,0.80
2022-09-11T06:21:23.627Z,1.27
2022-09-11T06:24:10.773Z,0.88
2022-09-11T06:26:58.010Z,0.88
2022-09-11T06:29:44.952Z,0.90
2022-09-11T06:32:31.311Z,1.00
2022-09-11T06:35:18.672Z,1.08
2022-09-11T06:38:05.651Z,0.70
2022-09-11T06:40:53.866Z,0.70
2022-09-11T06:43:40.681Z,0.70
2022-09-11T06:46:27.129Z,0.90
2022-09-11T06:49:14.476Z,0.70
2022-09-11T06:52:18.996Z,0.90
2022-09-11T06:55:07.831Z,0.68
2022-09-11T06:57:54.822Z,0.80
2022-09-11T07:00:41.345Z,0.77
2022-09-11T07:03:29.464Z,0.70
2022-09-11T07:06:17.775Z,0.88
2022-09-11T07:09:04.581Z,0.93
2022-09-11T07:11:51.795Z,0.70
2022-09-11T07:14:38.588Z,0.80
2022-09-11T07:17:25.174Z,1.65
2022-09-11T07:20:11.628Z,0.80
2022-09-11T07:22:58.595Z,0.65
2022-09-11T07:25:45.744Z,0.70
2022-09-11T07:28:32.942Z,0.60
2022-09-11T07:31:21.624Z,0.68
2022-09-11T07:34:08.582Z,0.57
2022-09-11T07:36:55.469Z,0.52
2022-09-11T07:39:42.882Z,0.50
2022-09-11T07:42:29.798Z,0.70
2022-09-11T07:45:22.065Z,0.60
2022-09-11T07:48:08.921Z,0.50
2022-09-11T07:50:58.805Z,0.80
2022-09-11T07:53:57.887Z,0.70
2022-09-11T07:56:45.201Z,0.52
2022-09-11T07:59:31.623Z,0.47
2022-09-11T08:02:18.206Z,0.65
2022-09-11T08:05:04.655Z,0.95
2022-09-11T08:07:51.160Z,0.52
2022-09-11T08:10:39.732Z,0.60
2022-09-11T08:13:25.741Z,0.70
2022-09-11T08:16:12.087Z,0.47
2022-09-11T08:18:58.942Z,0.40
2022-09-11T08:21:45.221Z,0.62
2022-09-11T08:24:31.532Z,0.68
2022-09-11T08:27:19.502Z,0.60
2022-09-11T08:30:06.210Z,1.00
2022-09-11T08:32:52.573Z,0.80
2022-09-11T08:35:39.181Z,0.40
2022-09-11T08:38:25.894Z,0.50
2022-09-11T08:41:24.427Z,0.62
2022-09-11T08:44:28.407Z,0.45
2022-09-11T08:47:29.331Z,0.60
2022-09-11T08:50:23.553Z,0.45
2022-09-11T08:53:17.326Z,0.60
2022-09-11T08:56:12.751Z,0.60
2022-09-11T08:59:10.554Z,0.60
2022-09-11T09:02:46.434Z,0.60
2022-09-11T09:05:41.894Z,0.30
2022-09-11T09:08:35.193Z,0.50
2022-09-11T09:11:55.720Z,0.30
2022-09-11T09:15:07.134Z,0.52
2022-09-11T09:17:59.299Z,0.65
2022-09-11T09:20:51.975Z,0.40
2022-09-11T09:23:44.806Z,0.65
2022-09-11T09:26:39.961Z,0.60
2022-09-11T09:29:30.558Z,0.60
2022-09-11T09:32:24.193Z,0.40
2022-09-11T09:35:18.513Z,0.40
2022-09-11T09:38:28.500Z,0.43
2022-09-11T09:41:36.366Z,0.50
2022-09-11T09:44:31.844Z,0.47
2022-09-11T09:47:18.144Z,0.95
2022-09-11T09:50:05.597Z,0.40
2022-09-11T09:52:51.655Z,0.68
2022-09-11T09:55:39.497Z,0.43
2022-09-11T09:58:29.958Z,0.45
2022-09-11T10:01:45.245Z,0.40
2022-09-11T10:04:31.787Z,0.55
2022-09-11T10:07:21.774Z,0.50
2022-09-11T10:10:21.535Z,0.60
2022-09-11T10:13:21.279Z,0.40
2022-09-11T10:16:37.152Z,0.70
2022-09-11T10:19:35.418Z,0.65
2022-09-11T10:22:22.793Z,0.57
2022-09-11T10:25:13.171Z,0.80
2022-09-11T10:28:06.576Z,0.60
2022-09-11T10:30:53.445Z,0.70
2022-09-11T10:33:41.542Z,0.70
2022-09-11T10:36:29.535Z,0.70
2022-09-11T10:39:17.566Z,0.80
2022-09-11T10:42:16.847Z,0.70
2022-09-11T10:45:16.956Z,0.73
2022-09-11T10:48:16.979Z,0.93
2022-09-11T10:51:07.747Z,1.00
2022-09-11T10:53:58.551Z,0.80
2022-09-11T10:56:50.793Z,0.60
2022-09-11T10:59:58.718Z,0.70
2022-09-11T11:02:47.679Z,0.73
2022-09-11T11:05:46.447Z,0.80
2022-09-11T11:08:51.346Z,0.80
2022-09-11T11:11:51.155Z,1.00
2022-09-11T11:14:59.422Z,0.70
2022-09-11T11:18:00.556Z,0.88
2022-09-11T11:21:31.133Z,1.10
2022-09-11T11:24:41.684Z,0.52
2022-09-11T11:28:00.436Z,0.73
2022-09-11T11:31:00.921Z,0.50
2022-09-11T11:34:00.685Z,0.50
2022-09-11T11:36:52.223Z,0.52
2022-09-11T11:40:17.062Z,0.50
2022-09-11T11:43:17.258Z,1.00
2022-09-11T11:46:18.108Z,0.60
2022-09-11T11:49:20.574Z,0.37
2022-09-11T11:52:28.851Z,0.45
2022-09-11T11:55:39.028Z,0.50
2022-09-11T11:58:40.217Z,0.50
2022-09-11T12:01:40.313Z,0.40
2022-09-11T12:04:46.276Z,0.40
2022-09-11T12:07:33.935Z,0.52
2022-09-11T12:10:33.388Z,0.40
2022-09-11T12:13:20.671Z,0.52
2022-09-11T12:16:13.187Z,0.60
2022-09-11T12:19:04.426Z,0.70
2022-09-11T12:21:54.142Z,1.17
2022-09-11T12:25:00.074Z,1.37
2022-09-11T12:27:46.488Z,0.90
2022-09-11T12:31:11.714Z,0.90
2022-09-11T12:33:58.477Z,0.90
2022-09-11T12:37:33.124Z,0.50
2022-09-11T12:40:25.497Z,0.60
2022-09-11T12:43:31.022Z,0.22
2022-09-11T12:46:20.206Z,0.50
2022-09-11T12:49:21.690Z,0.30
2022-09-11T12:52:19.351Z,0.20
2022-09-11T12:55:27.099Z,0.40
2022-09-11T12:58:19.128Z,0.50
2022-09-11T13:01:17.738Z,0.50
2022-09-11T13:04:15.783Z,0.60
2022-09-11T13:07:05.362Z,0.57
2022-09-11T13:09:52.141Z,0.73
2022-09-11T13:12:48.931Z,0.60
2022-09-11T13:15:43.074Z,0.50
2022-09-11T13:18:32.079Z,0.80
2022-09-11T13:21:21.133Z,1.20
2022-09-11T13:24:35.734Z,0.40
2022-09-11T13:30:14.054Z,0.60
2022-09-11T13:33:08.581Z,0.30
2022-09-11T13:35:57.648Z,0.55
2022-09-11T13:38:44.553Z,0.50
2022-09-11T13:41:37.972Z,0.65
2022-09-11T13:44:39.611Z,0.80
2022-09-11T13:47:27.423Z,0.82
2022-09-11T13:50:15.871Z,0.80
2022-09-11T13:53:02.369Z,0.80
2022-09-11T13:55:49.509Z,0.70
2022-09-11T13:58:35.915Z,0.90
2022-09-11T14:01:22.042Z,0.75
2022-09-11T14:04:11.016Z,0.60
2022-09-11T14:06:57.423Z,0.60
2022-09-11T14:09:47.920Z,0.40
2022-09-11T14:12:35.344Z,0.50
2022-09-11T14:15:41.528Z,0.50
2022-09-11T14:18:30.909Z,0.40
2022-09-11T14:21:20.077Z,0.50
2022-09-11T14:24:24.120Z,0.60
2022-09-11T14:27:35.241Z,0.40
2022-09-11T14:30:37.414Z,0.50
2022-09-11T14:33:27.091Z,0.50
2022-09-11T14:36:20.279Z,0.50
2022-09-11T14:39:07.851Z,0.80
2022-09-11T14:41:55.650Z,0.50
2022-09-11T14:44:42.395Z,0.30
2022-09-11T14:47:29.220Z,0.52
2022-09-11T14:50:15.821Z,0.30
2022-09-11T14:53:01.601Z,0.40
2022-09-11T14:55:47.855Z,0.40
2022-09-11T14:58:33.565Z,0.40
2022-09-11T15:01:20.012Z,0.30
2022-09-11T15:04:06.170Z,0.57
2022-09-11T15:06:55.777Z,0.47
2022-09-11T15:09:42.702Z,0.30
2022-09-11T15:12:29.435Z,0.40
2022-09-11T15:15:15.779Z,0.30
2022-09-11T15:18:02.115Z,0.40
2022-09-11T15:20:47.982Z,0.40
2022-09-11T15:23:34.662Z,1.98
2022-09-11T15:26:21.240Z,0.80
2022-09-11T15:29:09.997Z,0.45
2022-09-11T15:31:56.046Z,0.80
2022-09-11T15:34:43.930Z,0.70
2022-09-11T15:37:30.254Z,0.57
2022-09-11T15:40:17.162Z,0.80
2022-09-11T15:43:03.448Z,0.60
2022-09-11T15:45:50.167Z,0.80
2022-09-11T15:48:36.226Z,0.40
2022-09-11T15:51:24.049Z,0.60
2022-09-11T15:54:11.594Z,0.60
2022-09-11T15:56:58.021Z,0.90
2022-09-11T15:59:43.955Z,0.93
2022-09-11T16:02:30.255Z,0.90
2022-09-11T16:05:16.545Z,0.90
2022-09-11T16:08:02.872Z,0.70
2022-09-11T16:10:52.342Z,0.70
2022-09-11T16:13:40.259Z,0.52
2022-09-11T16:16:27.208Z,0.60
2022-09-11T16:19:19.379Z,0.50
2022-09-11T16:22:06.112Z,0.62
2022-09-11T16:24:51.864Z,0.50
2022-09-11T16:27:38.305Z,0.40
2022-09-11T16:30:42.651Z,0.68
2022-09-11T16:33:32.062Z,0.70
2022-09-11T16:36:20.560Z,0.68
2022-09-11T16:39:09.033Z,0.50
2022-09-11T16:41:55.648Z,0.70
2022-09-11T16:44:42.299Z,0.70
2022-09-11T16:47:30.427Z,0.70
2022-09-11T16:50:17.811Z,0.70
2022-09-11T16:53:03.739Z,0.62
2022-09-11T16:55:50.035Z,0.50
2022-09-11T16:58:36.922Z,0.80
2022-09-11T17:01:24.938Z,0.70
2022-09-11T17:04:10.756Z,0.80
2022-09-11T17:06:57.057Z,0.90
2022-09-11T17:09:43.742Z,0.82
2022-09-11T17:12:30.022Z,0.80
2022-09-11T17:15:16.537Z,0.95
2022-09-11T17:18:02.976Z,0.95
2022-09-11T17:20:49.173Z,0.90
2022-09-11T17:23:37.340Z,0.90
2022-09-11T17:26:24.047Z,1.00
2022-09-11T17:29:10.319Z,0.90
2022-09-11T17:32:16.690Z,1.33
2022-09-11T17:35:06.011Z,1.83
2022-09-11T17:37:58.311Z,1.92
2022-09-11T17:40:44.914Z,1.45
2022-09-11T17:43:31.293Z,1.37
2022-09-11T17:46:24.016Z,1.40
2022-09-11T17:49:10.064Z,1.20
2022-09-11T17:51:58.022Z,1.20
2022-09-11T17:54:44.294Z,1.10
2022-09-11T17:57:32.239Z,1.12
2022-09-11T18:00:18.545Z,1.05
2022-09-11T18:03:06.287Z,1.20
2022-09-11T18:05:52.577Z,1.00
2022-09-11T18:08:38.982Z,1.00
2022-09-11T18:11:25.358Z,0.80
2022-09-11T18:14:12.117Z,0.82
2022-09-11T18:16:58.406Z,0.85
2022-09-11T18:19:46.170Z,0.80
2022-09-11T18:22:32.362Z,0.98
2022-09-11T18:25:19.741Z,0.85
2022-09-11T18:28:07.065Z,0.80
2022-09-11T18:30:53.406Z,0.90
2022-09-11T18:33:39.804Z,1.10
2022-09-11T18:36:27.642Z,0.85
2022-09-11T18:39:15.253Z,0.90
2022-09-11T18:42:07.080Z,0.90
2022-09-11T18:44:53.038Z,0.88
2022-09-11T18:47:40.464Z,1.05
2022-09-11T18:50:26.865Z,1.00
2022-09-11T18:53:13.826Z,0.85
2022-09-11T18:56:04.565Z,0.90
2022-09-11T18:58:52.322Z,0.90
2022-09-11T19:01:39.975Z,1.20
2022-09-11T19:04:26.910Z,1.23
2022-09-11T19:07:13.506Z,0.90
2022-09-11T19:10:00.369Z,1.10
2022-09-11T19:12:48.323Z,0.90
2022-09-11T19:15:34.760Z,1.08
2022-09-11T19:18:21.602Z,1.00
2022-09-11T19:21:22.390Z,2.55
2022-09-11T19:24:08.704Z,1.27
2022-09-11T19:26:55.238Z,1.10
2022-09-11T19:29:41.485Z,1.08
2022-09-11T19:32:29.899Z,1.48
2022-09-11T19:35:15.776Z,1.10
2022-09-11T19:38:01.888Z,1.10
2022-09-11T19:40:47.717Z,1.33
2022-09-11T19:43:35.677Z,1.40
2022-09-11T19:46:26.586Z,1.30
2022-09-11T19:52:00.404Z,1.50
2022-09-11T19:54:46.814Z,1.40
2022-09-11T19:57:33.082Z,1.50
2022-09-11T20:00:19.447Z,1.60
2022-09-11T20:03:05.783Z,1.50
2022-09-11T20:05:54.034Z,1.60
2022-09-11T20:08:43.367Z,2.20
2022-09-11T20:11:30.682Z,1.50
2022-09-11T20:14:17.349Z,1.90
2022-09-11T20:17:04.790Z,1.60
2022-09-11T20:19:51.534Z,1.60
2022-09-11T20:22:37.865Z,1.67
2022-09-11T20:25:23.894Z,1.85
2022-09-11T20:28:10.563Z,2.20
2022-09-11T20:30:57.098Z,2.00
2022-09-11T20:33:43.940Z,2.05
2022-09-11T20:36:31.485Z,1.70
2022-09-11T20:39:17.705Z,1.60
2022-09-11T20:42:04.295Z,1.60
2022-09-11T20:44:50.409Z,1.85
2022-09-11T20:47:36.582Z,1.90
2022-09-11T20:50:22.555Z,1.70
2022-09-11T20:53:08.909Z,2.10
2022-09-11T20:56:00.722Z,1.70
2022-09-11T20:58:47.320Z,1.95
2022-09-11T21:01:34.072Z,2.10
2022-09-11T21:04:20.424Z,2.05
2022-09-11T21:07:06.596Z,2.12
2022-09-11T21:09:52.929Z,2.20
2022-09-11T21:12:39.295Z,2.20
2022-09-11T21:15:25.633Z,2.60
2022-09-11T21:18:12.287Z,2.58
2022-09-11T21:20:59.117Z,2.70
2022-09-11T21:23:45.644Z,2.35
2022-09-11T21:26:33.225Z,2.28
2022-09-11T21:29:19.062Z,2.37
2022-09-11T21:32:05.174Z,2.40
2022-09-11T21:34:51.080Z,2.42
2022-09-11T21:37:37.541Z,2.42
2022-09-11T21:40:23.339Z,2.50
2022-09-11T21:43:09.820Z,2.30
2022-09-11T21:45:55.666Z,2.75
2022-09-11T21:48:42.042Z,2.33
2022-09-11T21:51:28.759Z,2.87
2022-09-11T21:54:14.794Z,2.55
2022-09-11T21:57:00.717Z,2.85
2022-09-11T21:59:47.313Z,2.75
2022-09-11T22:02:33.502Z,3.05
2022-09-11T22:05:19.713Z,3.22
2022-09-11T22:08:06.338Z,3.30
2022-09-11T22:10:52.929Z,3.10
2022-09-11T22:13:38.880Z,3.42
2022-09-11T22:16:25.614Z,3.37
2022-09-11T22:19:12.209Z,3.58
2022-09-11T22:21:58.568Z,3.12
2022-09-11T22:24:44.362Z,3.62
2022-09-11T22:27:30.449Z,3.25
2022-09-11T22:30:16.520Z,3.75
2022-09-11T22:33:02.672Z,3.17
2022-09-11T22:35:49.574Z,3.35
2022-09-11T22:38:35.982Z,3.72
2022-09-11T22:41:21.805Z,3.50
2022-09-11T22:44:11.065Z,3.28
2022-09-11T22:46:57.616Z,3.53
2022-09-11T22:49:44.030Z,3.28
2022-09-11T22:52:30.085Z,3.65
2022-09-11T22:55:16.490Z,3.90
2022-09-11T22:58:02.266Z,3.50
2022-09-11T23:00:49.925Z,3.22
2022-09-11T23:03:36.678Z,3.60
2022-09-11T23:06:41.614Z,3.70
2022-09-11T23:09:27.442Z,3.62
2022-09-11T23:12:14.002Z,3.65
2022-09-11T23:14:59.729Z,3.72
2022-09-11T23:17:46.757Z,3.92
2022-09-11T23:20:33.189Z,3.47
2022-09-11T23:23:19.650Z,3.85
2022-09-11T23:26:05.497Z,3.40
2022-09-11T23:28:53.006Z,3.40
2022-09-11T23:31:39.004Z,3.65
2022-09-11T23:34:25.230Z,3.85
2022-09-11T23:37:11.708Z,3.15
2022-09-11T23:39:57.927Z,3.30
2022-09-11T23:42:44.182Z,4.15
2022-09-11T23:45:30.582Z,3.40
2022-09-11T23:48:16.885Z,3.55
2022-09-11T23:51:03.945Z,3.70
2022-09-11T23:53:51.800Z,3.53
2022-09-11T23:56:37.951Z,3.20
2022-09-11T23:59:23.797Z,2.97
